createdAt,value
2018-04-23T00:01:38.525Z,6.93
2018-04-23T00:04:07.373Z,6.40
2018-04-23T00:06:35.419Z,6.77
2018-04-23T00:09:03.478Z,6.90
2018-04-23T00:11:31.549Z,7.70
2018-04-23T00:13:59.650Z,7.97
2018-04-23T00:16:27.781Z,6.90
2018-04-23T00:18:56.610Z,7.03
2018-04-23T00:21:24.691Z,7.27
2018-04-23T00:23:52.706Z,7.87
2018-04-23T00:26:20.778Z,8.57
2018-04-23T00:28:49.604Z,7.87
2018-04-23T00:31:17.662Z,7.73
2018-04-23T00:33:45.730Z,7.70
2018-04-23T00:36:13.802Z,8.53
2018-04-23T00:38:41.897Z,9.40
2018-04-23T00:41:09.929Z,8.10
2018-04-23T00:43:37.991Z,7.20
2018-04-23T00:46:06.828Z,7.60
2018-04-23T00:48:34.934Z,9.03
2018-04-23T00:51:03.789Z,8.23
2018-04-23T00:53:38.289Z,9.00
2018-04-23T00:56:06.366Z,8.30
2018-04-23T00:58:34.446Z,8.90
2018-04-23T01:01:02.476Z,9.20
2018-04-23T01:03:31.407Z,9.20
2018-04-23T01:05:59.443Z,9.40
2018-04-23T01:08:28.282Z,8.67
2018-04-23T01:10:56.321Z,9.83
2018-04-23T01:13:24.395Z,10.70
2018-04-23T01:15:52.466Z,9.03
2018-04-23T01:18:20.626Z,11.10
2018-04-23T01:20:48.691Z,10.00
2018-04-23T01:23:17.508Z,9.60
2018-04-23T01:25:45.599Z,11.30
2018-04-23T01:28:13.674Z,10.43
2018-04-23T01:30:41.737Z,9.87
2018-04-23T01:33:09.987Z,10.10
2018-04-23T01:35:38.063Z,10.77
2018-04-23T01:38:06.121Z,10.70
2018-04-23T01:40:34.247Z,10.20
2018-04-23T01:43:02.733Z,11.10
2018-04-23T01:45:30.799Z,10.80
2018-04-23T01:47:58.829Z,11.80
2018-04-23T01:50:26.900Z,12.20
2018-04-23T01:52:54.942Z,11.63
2018-04-23T01:55:23.781Z,11.97
2018-04-23T01:57:51.888Z,12.97
2018-04-23T02:00:19.938Z,12.93
2018-04-23T02:02:48.062Z,12.80
2018-04-23T02:05:16.115Z,12.97
2018-04-23T02:07:44.991Z,12.80
2018-04-23T02:10:13.046Z,15.13
2018-04-23T02:12:41.111Z,14.43
2018-04-23T02:15:09.170Z,14.43
2018-04-23T02:17:37.223Z,15.30
2018-04-23T02:20:05.301Z,15.40
2018-04-23T02:22:33.371Z,16.30
2018-04-23T02:25:01.445Z,16.20
2018-04-23T02:27:29.561Z,16.40
2018-04-23T02:29:57.621Z,17.60
2018-04-23T02:32:25.710Z,16.60
2018-04-23T02:34:53.799Z,17.77
2018-04-23T02:37:22.626Z,18.63
2018-04-23T02:39:50.705Z,15.97
2018-04-23T02:42:18.776Z,17.13
2018-04-23T02:44:46.823Z,15.93
2018-04-23T02:47:14.905Z,17.77
2018-04-23T02:49:42.954Z,17.93
2018-04-23T02:52:11.773Z,17.27
2018-04-23T02:54:39.847Z,17.60
2018-04-23T02:57:07.925Z,18.90
2018-04-23T02:59:35.976Z,18.73
2018-04-23T03:02:04.052Z,19.17
2018-04-23T03:04:32.099Z,17.77
2018-04-23T03:07:00.218Z,16.00
2018-04-23T03:09:28.349Z,16.93
2018-04-23T03:11:56.415Z,15.70
2018-04-23T03:14:24.485Z,13.73
2018-04-23T03:16:52.539Z,13.87
2018-04-23T03:19:20.607Z,13.13
2018-04-23T03:21:49.457Z,13.80
2018-04-23T03:24:17.590Z,13.33
2018-04-23T03:26:45.669Z,12.60
2018-04-23T03:29:13.978Z,12.50
2018-04-23T03:31:42.043Z,14.00
2018-04-23T03:34:10.069Z,14.10
2018-04-23T03:36:38.903Z,14.00
2018-04-23T03:39:07.010Z,14.73
2018-04-23T03:41:35.068Z,14.90
2018-04-23T03:44:03.109Z,15.70
2018-04-23T03:46:31.294Z,14.03
2018-04-23T03:48:59.363Z,13.60
2018-04-23T03:51:27.502Z,14.00
2018-04-23T03:53:55.555Z,13.50
2018-04-23T03:56:23.613Z,14.23
2018-04-23T03:58:51.694Z,14.43
2018-04-23T04:01:19.789Z,14.67
2018-04-23T04:03:48.654Z,14.43
2018-04-23T04:06:16.722Z,14.90
2018-04-23T04:08:44.819Z,14.33
2018-04-23T04:11:13.666Z,14.83
2018-04-23T04:13:53.722Z,15.07
2018-04-23T04:16:33.597Z,16.77
2018-04-23T04:19:02.451Z,14.30
2018-04-23T04:21:30.522Z,15.30
2018-04-23T04:23:58.582Z,13.80
2018-04-23T04:26:27.491Z,15.90
2018-04-23T04:28:57.058Z,15.40
2018-04-23T04:31:25.126Z,14.10
2018-04-23T04:33:53.190Z,13.90
2018-04-23T04:36:21.253Z,14.33
2018-04-23T04:38:49.300Z,12.30
2018-04-23T04:41:17.398Z,11.60
2018-04-23T04:43:45.521Z,12.40
2018-04-23T04:46:13.577Z,13.20
2018-04-23T04:48:42.396Z,12.40
2018-04-23T04:51:10.634Z,12.27
2018-04-23T04:53:39.397Z,13.63
2018-04-23T04:56:07.450Z,15.00
2018-04-23T04:58:36.285Z,15.27
2018-04-23T05:01:04.367Z,13.27
2018-04-23T05:03:32.422Z,14.27
2018-04-23T05:06:00.528Z,12.53
2018-04-23T05:08:28.570Z,13.20
2018-04-23T05:10:56.817Z,14.33
2018-04-23T05:13:25.976Z,13.67
2018-04-23T05:15:54.008Z,14.10
2018-04-23T05:18:22.061Z,13.80
2018-04-23T05:20:50.120Z,14.60
2018-04-23T05:23:18.166Z,14.77
2018-04-23T05:25:46.210Z,14.70
2018-04-23T05:28:14.293Z,14.97
2018-04-23T05:30:42.354Z,16.53
2018-04-23T05:33:10.411Z,17.13
2018-04-23T05:35:38.492Z,17.00
2018-04-23T05:38:06.545Z,15.87
2018-04-23T05:40:34.589Z,17.60
2018-04-23T05:43:03.423Z,17.10
2018-04-23T05:45:31.477Z,17.33
2018-04-23T05:47:59.542Z,17.20
2018-04-23T05:50:27.595Z,16.53
2018-04-23T05:52:55.688Z,16.77
2018-04-23T05:55:24.386Z,17.07
2018-04-23T05:57:52.450Z,19.93
2018-04-23T06:00:20.522Z,21.43
2018-04-23T06:02:48.607Z,20.60
2018-04-23T06:05:16.769Z,21.30
2018-04-23T06:07:44.770Z,22.70
2018-04-23T06:10:12.846Z,22.60
2018-04-23T06:12:40.892Z,21.97
2018-04-23T06:15:08.955Z,21.80
2018-04-23T06:17:36.997Z,21.47
2018-04-23T06:20:05.113Z,20.10
2018-04-23T06:22:33.136Z,21.80
2018-04-23T06:25:01.181Z,21.97
2018-04-23T06:27:29.278Z,21.40
2018-04-23T06:29:57.321Z,22.47
2018-04-23T06:32:25.371Z,23.63
2018-04-23T06:34:53.438Z,25.63
2018-04-23T06:37:21.478Z,23.30
2018-04-23T06:39:49.530Z,23.20
2018-04-23T06:42:17.618Z,24.13
2018-04-23T06:44:45.676Z,24.80
2018-04-23T06:47:14.569Z,24.63
2018-04-23T06:49:42.596Z,22.90
2018-04-23T06:52:10.666Z,22.17
2018-04-23T06:54:38.708Z,22.30
2018-04-23T06:57:06.774Z,21.63
2018-04-23T06:59:34.828Z,32.00
2018-04-23T07:02:02.874Z,25.17
2018-04-23T07:04:30.975Z,22.10
2018-04-23T07:06:59.028Z,22.23
2018-04-23T07:09:28.675Z,21.20
2018-04-23T07:11:56.763Z,21.93
2018-04-23T07:14:24.813Z,21.80
2018-04-23T07:16:52.885Z,19.87
2018-04-23T07:19:21.038Z,18.93
2018-04-23T07:21:49.089Z,20.70
2018-04-23T07:24:17.915Z,21.17
2018-04-23T07:26:45.965Z,20.40
2018-04-23T07:29:14.041Z,21.40
2018-04-23T07:31:42.861Z,20.30
2018-04-23T07:34:11.705Z,17.63
2018-04-23T07:36:40.539Z,20.20
2018-04-23T07:39:08.891Z,19.50
2018-04-23T07:41:36.981Z,19.27
2018-04-23T07:44:05.029Z,18.40
2018-04-23T07:46:33.077Z,19.33
2018-04-23T07:49:01.926Z,17.97
2018-04-23T07:51:29.958Z,19.30
2018-04-23T07:53:58.539Z,18.07
2018-04-23T07:56:26.654Z,18.83
2018-04-23T07:58:54.706Z,18.03
2018-04-23T08:01:22.798Z,19.03
2018-04-23T08:03:50.864Z,20.90
2018-04-23T08:06:18.912Z,19.40
2018-04-23T08:08:46.965Z,19.67
2018-04-23T08:11:15.799Z,19.87
2018-04-23T08:13:43.856Z,19.00
2018-04-23T08:16:12.113Z,19.70
2018-04-23T08:18:40.541Z,18.20
2018-04-23T08:21:08.597Z,18.33
2018-04-23T08:23:36.708Z,18.87
2018-04-23T08:26:04.727Z,19.20
2018-04-23T08:28:32.799Z,19.50
2018-04-23T08:31:00.845Z,18.40
2018-04-23T08:33:28.977Z,16.57
2018-04-23T08:35:56.989Z,16.80
2018-04-23T08:38:25.082Z,17.23
2018-04-23T08:40:53.131Z,17.20
2018-04-23T08:43:21.218Z,17.27
2018-04-23T08:45:49.361Z,17.03
2018-04-23T08:48:17.407Z,15.27
2018-04-23T08:50:46.270Z,15.93
2018-04-23T08:53:14.334Z,14.53
2018-04-23T08:55:42.416Z,16.30
2018-04-23T08:58:10.548Z,16.53
2018-04-23T09:00:38.576Z,16.77
2018-04-23T09:03:06.624Z,15.93
2018-04-23T09:05:34.682Z,17.00
2018-04-23T09:08:02.769Z,16.40
2018-04-23T09:10:30.903Z,15.40
2018-04-23T09:12:58.953Z,13.27
2018-04-23T09:15:27.782Z,15.20
2018-04-23T09:17:55.890Z,14.53
2018-04-23T09:20:23.905Z,13.20
2018-04-23T09:22:52.841Z,13.40
2018-04-23T09:25:20.898Z,10.60
2018-04-23T09:27:48.987Z,10.63
2018-04-23T09:30:17.034Z,9.23
2018-04-23T09:32:45.120Z,9.23
2018-04-23T09:35:13.171Z,8.47
2018-04-23T09:37:41.247Z,8.10
2018-04-23T09:40:09.279Z,9.47
2018-04-23T09:42:38.101Z,9.17
2018-04-23T09:45:06.169Z,12.60
2018-04-23T09:47:34.249Z,8.77
2018-04-23T09:50:02.339Z,9.10
2018-04-23T09:52:30.363Z,10.37
2018-04-23T09:54:59.195Z,11.53
2018-04-23T09:57:27.238Z,8.90
2018-04-23T09:59:55.403Z,8.20
2018-04-23T10:02:23.424Z,8.90
2018-04-23T10:04:51.492Z,7.87
2018-04-23T10:07:20.360Z,7.53
2018-04-23T10:09:49.172Z,6.70
2018-04-23T10:12:17.203Z,6.17
2018-04-23T10:14:45.279Z,6.73
2018-04-23T10:17:13.323Z,7.13
2018-04-23T10:19:42.120Z,5.37
2018-04-23T10:22:10.932Z,6.67
2018-04-23T10:24:38.975Z,6.43
2018-04-23T10:27:07.805Z,6.90
2018-04-23T10:29:35.890Z,6.37
2018-04-23T10:32:03.962Z,7.50
2018-04-23T10:34:32.091Z,6.90
2018-04-23T10:37:00.160Z,7.77
2018-04-23T10:39:28.199Z,7.80
2018-04-23T10:41:56.262Z,7.47
2018-04-23T10:44:24.376Z,6.93
2018-04-23T10:46:52.382Z,7.20
2018-04-23T10:49:20.433Z,6.10
2018-04-23T10:51:48.470Z,6.47
2018-04-23T10:54:17.377Z,5.80
2018-04-23T10:56:45.407Z,6.53
2018-04-23T10:59:13.450Z,4.97
2018-04-23T11:01:41.540Z,5.73
2018-04-23T11:04:10.104Z,6.30
2018-04-23T11:06:38.245Z,6.30
2018-04-23T11:09:06.246Z,7.77
2018-04-23T11:11:34.306Z,6.40
2018-04-23T11:14:02.349Z,6.67
2018-04-23T11:16:31.149Z,6.00
2018-04-23T11:18:59.217Z,7.37
2018-04-23T11:21:27.404Z,6.00
2018-04-23T11:23:55.463Z,5.90
2018-04-23T11:26:23.532Z,6.50
2018-04-23T11:28:52.424Z,6.07
2018-04-23T11:31:20.424Z,5.87
2018-04-23T11:33:48.482Z,5.80
2018-04-23T11:36:17.477Z,5.40
2018-04-23T11:38:45.535Z,5.90
2018-04-23T11:41:14.381Z,5.37
2018-04-23T11:43:42.419Z,6.50
2018-04-23T11:46:10.561Z,5.47
2018-04-23T11:48:38.596Z,7.77
2018-04-23T11:51:07.218Z,7.60
2018-04-23T11:53:35.245Z,7.23
2018-04-23T11:56:03.318Z,6.77
2018-04-23T11:58:31.375Z,6.63
2018-04-23T12:00:59.818Z,6.67
2018-04-23T12:03:27.901Z,7.10
2018-04-23T12:05:55.930Z,6.20
2018-04-23T12:08:24.769Z,6.60
2018-04-23T12:10:52.833Z,5.40
2018-04-23T12:13:20.920Z,5.77
2018-04-23T12:15:48.961Z,5.27
2018-04-23T12:18:17.003Z,5.57
2018-04-23T12:20:45.095Z,5.17
2018-04-23T12:23:13.114Z,5.80
2018-04-23T12:25:41.157Z,5.27
2018-04-23T12:28:09.214Z,5.37
2018-04-23T12:30:37.281Z,5.60
2018-04-23T12:33:05.319Z,5.07
2018-04-23T12:38:07.845Z,5.10
2018-04-23T12:40:35.916Z,5.00
2018-04-23T12:43:03.986Z,6.23
2018-04-23T12:45:32.791Z,4.83
2018-04-23T12:48:01.607Z,5.60
2018-04-23T12:50:29.654Z,5.60
2018-04-23T12:52:57.693Z,6.60
2018-04-23T12:55:27.281Z,5.47
2018-04-23T12:57:55.384Z,4.70
2018-04-23T13:00:23.455Z,5.60
2018-04-23T13:02:52.248Z,4.73
2018-04-23T13:05:20.314Z,5.80
2018-04-23T13:07:48.365Z,5.10
2018-04-23T13:10:17.558Z,5.67
2018-04-23T13:12:45.623Z,5.27
2018-04-23T13:15:13.714Z,5.93
2018-04-23T13:17:42.505Z,6.13
2018-04-23T13:20:11.308Z,5.87
2018-04-23T13:22:39.411Z,6.57
2018-04-23T13:25:07.473Z,5.30
2018-04-23T13:27:36.318Z,6.20
2018-04-23T13:30:05.946Z,5.53
2018-04-23T13:32:35.270Z,5.93
2018-04-23T13:35:03.339Z,6.07
2018-04-23T13:37:32.162Z,5.53
2018-04-23T13:40:00.256Z,5.53
2018-04-23T13:42:29.093Z,5.70
2018-04-23T13:44:57.874Z,5.90
2018-04-23T13:47:25.903Z,5.30
2018-04-23T13:49:53.967Z,5.20
2018-04-23T13:52:22.006Z,5.40
2018-04-23T13:54:50.062Z,5.30
2018-04-23T13:57:18.097Z,5.37
2018-04-23T13:59:46.921Z,5.77
2018-04-23T14:02:15.071Z,6.50
2018-04-23T14:04:43.096Z,6.67
2018-04-23T14:07:11.131Z,6.77
2018-04-23T14:09:39.209Z,7.17
2018-04-23T14:12:07.247Z,5.93
2018-04-23T14:14:36.053Z,5.70
2018-04-23T14:17:04.080Z,8.33
2018-04-23T14:19:32.141Z,7.70
2018-04-23T14:22:00.229Z,5.70
2018-04-23T14:24:28.293Z,5.47
2018-04-23T14:26:56.475Z,5.50
2018-04-23T14:29:24.514Z,4.93
2018-04-23T14:31:53.578Z,6.03
2018-04-23T14:34:21.633Z,5.63
2018-04-23T14:36:50.470Z,5.73
2018-04-23T14:39:18.534Z,6.30
2018-04-23T14:41:46.573Z,14.83
2018-04-23T14:44:14.749Z,6.40
2018-04-23T14:46:42.754Z,7.33
2018-04-23T14:49:10.807Z,6.10
2018-04-23T14:51:38.829Z,5.73
2018-04-23T14:54:06.923Z,6.10
2018-04-23T14:56:34.993Z,5.70
2018-04-23T14:59:03.822Z,6.93
2018-04-23T15:01:31.874Z,7.50
2018-04-23T15:03:59.925Z,6.73
2018-04-23T15:06:28.730Z,5.60
2018-04-23T15:08:56.775Z,5.60
2018-04-23T15:11:25.621Z,5.27
2018-04-23T15:13:53.642Z,7.97
2018-04-23T15:16:21.711Z,5.80
2018-04-23T15:18:50.522Z,6.27
2018-04-23T15:21:18.560Z,5.87
2018-04-23T15:23:47.406Z,6.10
2018-04-23T15:26:15.455Z,6.03
2018-04-23T15:28:43.519Z,6.53
2018-04-23T15:31:11.550Z,8.03
2018-04-23T15:33:39.610Z,6.77
2018-04-23T15:36:07.724Z,6.73
2018-04-23T15:38:35.793Z,5.80
2018-04-23T15:41:03.896Z,6.43
2018-04-23T15:43:32.655Z,7.97
2018-04-23T15:46:00.712Z,6.40
2018-04-23T15:48:29.619Z,6.00
2018-04-23T15:50:58.443Z,6.73
2018-04-23T15:53:26.582Z,6.60
2018-04-23T15:55:54.591Z,6.80
2018-04-23T15:58:22.837Z,7.03
2018-04-23T16:00:50.829Z,6.67
2018-04-23T16:03:18.963Z,6.43
2018-04-23T16:05:47.010Z,7.00
2018-04-23T16:08:15.038Z,7.10
2018-04-23T16:10:43.096Z,8.10
2018-04-23T16:13:11.147Z,6.83
2018-04-23T16:15:39.966Z,6.33
2018-04-23T16:18:08.039Z,6.60
2018-04-23T16:20:36.096Z,6.50
2018-04-23T16:23:04.251Z,7.60
2018-04-23T16:25:32.262Z,6.47
2018-04-23T16:28:00.326Z,7.20
2018-04-23T16:30:28.364Z,8.80
2018-04-23T16:32:57.195Z,9.63
2018-04-23T16:35:25.249Z,8.47
2018-04-23T16:37:53.348Z,11.47
2018-04-23T16:40:21.397Z,6.20
2018-04-23T16:42:51.897Z,8.67
2018-04-23T16:45:19.961Z,7.60
2018-04-23T16:47:48.858Z,7.33
2018-04-23T16:50:16.887Z,10.63
2018-04-23T16:52:46.218Z,7.70
2018-04-23T16:55:14.289Z,7.00
2018-04-23T16:57:42.333Z,5.60
2018-04-23T17:00:10.467Z,6.20
2018-04-23T17:02:38.555Z,8.07
2018-04-23T17:05:06.633Z,6.20
2018-04-23T17:07:34.679Z,8.37
2018-04-23T17:10:02.727Z,6.60
2018-04-23T17:12:31.538Z,6.13
2018-04-23T17:15:00.346Z,5.80
2018-04-23T17:17:28.414Z,6.07
2018-04-23T17:19:56.880Z,7.83
2018-04-23T17:22:26.055Z,5.73
2018-04-23T17:24:54.509Z,6.20
2018-04-23T17:27:22.546Z,10.20
2018-04-23T17:29:50.763Z,5.97
2018-04-23T17:32:19.263Z,5.73
2018-04-23T17:34:47.290Z,5.40
2018-04-23T17:37:15.322Z,4.90
2018-04-23T17:39:43.403Z,5.20
2018-04-23T17:42:11.498Z,4.60
2018-04-23T17:44:39.577Z,4.97
2018-04-23T17:47:07.682Z,4.50
2018-04-23T17:49:36.493Z,3.97
2018-04-23T17:52:04.600Z,6.50
2018-04-23T17:54:32.639Z,4.40
2018-04-23T17:57:01.101Z,4.67
2018-04-23T17:59:29.957Z,4.57
2018-04-23T18:01:58.023Z,5.10
2018-04-23T18:04:26.567Z,5.40
2018-04-23T18:06:54.574Z,7.90
2018-04-23T18:09:22.670Z,5.27
2018-04-23T18:11:50.737Z,4.80
2018-04-23T18:14:18.794Z,4.60
2018-04-23T18:16:46.857Z,5.17
2018-04-23T18:19:14.915Z,3.50
2018-04-23T18:21:43.469Z,4.37
2018-04-23T18:24:11.474Z,4.83
2018-04-23T18:26:39.562Z,3.80
2018-04-23T18:29:07.612Z,4.20
2018-04-23T18:31:35.666Z,4.20
2018-04-23T18:34:03.763Z,4.63
2018-04-23T18:36:31.806Z,4.67
2018-04-23T18:38:59.887Z,4.90
2018-04-23T18:41:27.967Z,4.27
2018-04-23T18:43:56.016Z,4.53
2018-04-23T18:46:24.056Z,4.40
2018-04-23T18:48:52.876Z,5.30
2018-04-23T18:51:20.947Z,5.10
2018-04-23T18:53:49.430Z,5.10
2018-04-23T18:56:17.506Z,6.10
2018-04-23T18:58:45.565Z,6.20
2018-04-23T19:01:14.014Z,5.33
2018-04-23T19:03:42.068Z,8.13
2018-04-23T19:06:10.193Z,4.30
2018-04-23T19:08:39.214Z,4.10
2018-04-23T19:11:08.846Z,5.60
2018-04-23T19:13:36.885Z,13.80
2018-04-23T19:16:04.986Z,4.70
2018-04-23T19:18:34.546Z,4.23
2018-04-23T19:21:02.607Z,3.43
2018-04-23T19:23:31.809Z,4.63
2018-04-23T19:26:00.237Z,4.47
2018-04-23T19:28:28.310Z,5.40
2018-04-23T19:30:56.365Z,4.67
2018-04-23T19:33:24.448Z,4.80
2018-04-23T19:35:52.551Z,3.83
2018-04-23T19:38:20.568Z,4.27
2018-04-23T19:40:48.641Z,7.90
2018-04-23T19:43:16.746Z,7.30
2018-04-23T19:45:44.770Z,5.43
2018-04-23T19:48:12.812Z,5.80
2018-04-23T19:50:41.918Z,3.80
2018-04-23T19:53:09.922Z,4.20
2018-04-23T19:55:38.733Z,3.80
2018-04-23T19:58:07.710Z,6.70
2018-04-23T20:00:35.878Z,4.47
2018-04-23T20:03:03.839Z,4.03
2018-04-23T20:05:32.750Z,2.83
2018-04-23T20:08:00.871Z,3.50
2018-04-23T20:10:28.873Z,3.10
2018-04-23T20:12:56.971Z,3.13
2018-04-23T20:15:25.006Z,3.40
2018-04-23T20:17:53.090Z,3.47
2018-04-23T20:20:21.283Z,3.00
2018-04-23T20:22:49.329Z,2.97
2018-04-23T20:25:17.391Z,3.73
2018-04-23T20:27:45.494Z,3.00
2018-04-23T20:30:13.749Z,8.05
2018-04-23T20:32:41.790Z,3.37
2018-04-23T20:35:09.924Z,4.40
2018-04-23T20:37:37.960Z,3.23
2018-04-23T20:40:06.018Z,4.67
2018-04-23T20:42:34.088Z,4.70
2018-04-23T20:45:02.139Z,3.03
2018-04-23T20:47:31.138Z,3.33
2018-04-23T20:49:59.134Z,3.03
2018-04-23T20:52:27.383Z,3.23
2018-04-23T20:54:55.382Z,3.20
2018-04-23T20:57:23.504Z,3.57
2018-04-23T20:59:51.525Z,3.50
2018-04-23T21:02:19.584Z,3.57
2018-04-23T21:04:47.657Z,4.10
2018-04-23T21:07:15.743Z,3.17
2018-04-23T21:09:43.794Z,3.40
2018-04-23T21:12:11.866Z,3.50
2018-04-23T21:14:39.929Z,3.60
2018-04-23T21:17:07.980Z,4.10
2018-04-23T21:19:36.799Z,4.63
2018-04-23T21:22:05.070Z,4.00
2018-04-23T21:24:33.173Z,3.33
2018-04-23T21:27:01.308Z,3.53
2018-04-23T21:29:30.109Z,3.73
2018-04-23T21:31:58.175Z,4.13
2018-04-23T21:34:26.213Z,4.13
2018-04-23T21:36:54.303Z,4.23
2018-04-23T21:39:23.130Z,3.50
2018-04-23T21:41:51.170Z,4.67
2018-04-23T21:44:19.245Z,3.57
2018-04-23T21:46:47.288Z,4.17
2018-04-23T21:49:15.353Z,3.57
2018-04-23T21:51:44.915Z,3.43
2018-04-23T21:54:13.006Z,4.60
2018-04-23T21:56:41.183Z,3.90
2018-04-23T21:59:09.213Z,4.20
2018-04-23T22:01:37.261Z,4.70
2018-04-23T22:04:06.118Z,4.57
2018-04-23T22:06:34.155Z,4.63
2018-04-23T22:09:02.354Z,4.70
2018-04-23T22:11:30.415Z,4.40
2018-04-23T22:13:58.495Z,5.07
2018-04-23T22:16:26.571Z,3.90
2018-04-23T22:18:54.651Z,4.00
2018-04-23T22:21:22.719Z,4.50
2018-04-23T22:23:50.759Z,3.83
2018-04-23T22:26:18.880Z,4.30
2018-04-23T22:28:46.926Z,4.27
2018-04-23T22:31:15.137Z,3.70
2018-04-23T22:33:43.167Z,3.83
2018-04-23T22:36:11.200Z,4.53
2018-04-23T22:38:39.300Z,4.43
2018-04-23T22:41:07.365Z,3.80
2018-04-23T22:43:36.170Z,3.97
2018-04-23T22:46:04.342Z,4.07
2018-04-23T22:48:32.403Z,4.00
2018-04-23T22:51:00.491Z,4.00
2018-04-23T22:53:28.557Z,3.83
2018-04-23T22:55:56.635Z,3.50
2018-04-23T22:58:24.727Z,3.70
2018-04-23T23:00:52.821Z,4.00
2018-04-23T23:03:21.613Z,3.97
2018-04-23T23:05:50.435Z,3.20
2018-04-23T23:08:18.543Z,3.40
2018-04-23T23:10:46.640Z,4.80
2018-04-23T23:13:15.997Z,3.90
2018-04-23T23:15:44.062Z,4.00
2018-04-23T23:18:12.115Z,3.43
2018-04-23T23:20:40.244Z,3.90
2018-04-23T23:23:08.373Z,4.07
2018-04-23T23:25:36.541Z,3.63
2018-04-23T23:28:04.615Z,4.13
2018-04-23T23:30:32.673Z,3.90
2018-04-23T23:33:00.709Z,3.90
2018-04-23T23:35:29.559Z,4.30
2018-04-23T23:37:57.600Z,3.90
2018-04-23T23:40:25.697Z,4.40
2018-04-23T23:42:53.763Z,4.10
2018-04-23T23:45:21.853Z,4.37
2018-04-23T23:47:49.898Z,4.00
2018-04-23T23:50:17.937Z,4.20
2018-04-23T23:52:46.868Z,4.07
2018-04-23T23:55:14.965Z,4.03
2018-04-23T23:57:43.050Z,3.67
